sensor_id;sensor_type;location;lat;lon;timestamp;temperature;humidity
25024;DHT22;13033;50.936;5.334;2022-09-09T00:04:27;16.60;99.90
25024;DHT22;13033;50.936;5.334;2022-09-09T00:07:18;16.50;99.90
25024;DHT22;13033;50.936;5.334;2022-09-09T00:10:34;16.50;99.90
25024;DHT22;13033;50.936;5.334;2022-09-09T00:15:23;16.40;99.90
25024;DHT22;13033;50.936;5.334;2022-09-09T00:23:39;16.30;99.90
25024;DHT22;13033;50.936;5.334;2022-09-09T00:26:19;16.30;99.90
25024;DHT22;13033;50.936;5.334;2022-09-09T00:29:28;16.30;99.90
25024;DHT22;13033;50.936;5.334;2022-09-09T00:32:09;16.50;99.90
25024;DHT22;13033;50.936;5.334;2022-09-09T00:34:44;16.60;99.90
25024;DHT22;13033;50.936;5.334;2022-09-09T00:37:10;16.70;99.90
25024;DHT22;13033;50.936;5.334;2022-09-09T00:39:42;16.60;99.90
25024;DHT22;13033;50.936;5.334;2022-09-09T00:44:37;16.40;99.90
25024;DHT22;13033;50.936;5.334;2022-09-09T00:47:21;16.40;99.90
25024;DHT22;13033;50.936;5.334;2022-09-09T00:58:10;16.20;99.90
25024;DHT22;13033;50.936;5.334;2022-09-09T01:08:56;16.40;99.90
25024;DHT22;13033;50.936;5.334;2022-09-09T01:17:20;16.20;99.90
25024;DHT22;13033;50.936;5.334;2022-09-09T01:20:13;16.20;99.90
25024;DHT22;13033;50.936;5.334;2022-09-09T01:28:36;15.90;99.90
25024;DHT22;13033;50.936;5.334;2022-09-09T01:31:04;16.00;99.90
25024;DHT22;13033;50.936;5.334;2022-09-09T01:33:31;16.10;99.90
25024;DHT22;13033;50.936;5.334;2022-09-09T01:36:28;16.30;99.90
25024;DHT22;13033;50.936;5.334;2022-09-09T01:38:55;16.20;99.90
25024;DHT22;13033;50.936;5.334;2022-09-09T01:41:21;16.10;99.90
25024;DHT22;13033;50.936;5.334;2022-09-09T01:43:47;16.00;99.90
25024;DHT22;13033;50.936;5.334;2022-09-09T01:46:13;16.10;99.90
25024;DHT22;13033;50.936;5.334;2022-09-09T01:48:39;15.90;99.90
25024;DHT22;13033;50.936;5.334;2022-09-09T01:51:07;16.00;99.90
25024;DHT22;13033;50.936;5.334;2022-09-09T01:53:32;15.90;99.90
25024;DHT22;13033;50.936;5.334;2022-09-09T01:56:07;15.90;99.90
25024;DHT22;13033;50.936;5.334;2022-09-09T02:04:04;16.10;99.90
25024;DHT22;13033;50.936;5.334;2022-09-09T02:06:40;16.20;99.90
25024;DHT22;13033;50.936;5.334;2022-09-09T02:09:07;16.30;99.90
25024;DHT22;13033;50.936;5.334;2022-09-09T02:11:36;16.20;99.90
25024;DHT22;13033;50.936;5.334;2022-09-09T02:14:15;16.20;99.90
25024;DHT22;13033;50.936;5.334;2022-09-09T02:16:52;16.40;99.90
25024;DHT22;13033;50.936;5.334;2022-09-09T02:19:25;16.40;99.90
25024;DHT22;13033;50.936;5.334;2022-09-09T02:21:56;16.40;99.90
25024;DHT22;13033;50.936;5.334;2022-09-09T02:24:25;16.30;99.90
25024;DHT22;13033;50.936;5.334;2022-09-09T02:26:53;16.40;99.90
25024;DHT22;13033;50.936;5.334;2022-09-09T02:29:36;16.30;99.90
25024;DHT22;13033;50.936;5.334;2022-09-09T02:32:06;16.30;99.90
25024;DHT22;13033;50.936;5.334;2022-09-09T02:34:36;16.30;99.90
25024;DHT22;13033;50.936;5.334;2022-09-09T02:37:03;16.30;99.90
25024;DHT22;13033;50.936;5.334;2022-09-09T02:39:29;16.10;99.90
25024;DHT22;13033;50.936;5.334;2022-09-09T02:41:54;16.10;99.90
25024;DHT22;13033;50.936;5.334;2022-09-09T02:44:20;16.10;99.90
25024;DHT22;13033;50.936;5.334;2022-09-09T02:47:10;16.20;99.90
25024;DHT22;13033;50.936;5.334;2022-09-09T02:52:38;16.20;99.90
25024;DHT22;13033;50.936;5.334;2022-09-09T02:55:38;16.40;99.90
25024;DHT22;13033;50.936;5.334;2022-09-09T02:58:07;16.30;99.90
25024;DHT22;13033;50.936;5.334;2022-09-09T03:00:35;16.20;99.90
25024;DHT22;13033;50.936;5.334;2022-09-09T03:03:03;16.10;99.90
25024;DHT22;13033;50.936;5.334;2022-09-09T03:05:28;16.10;99.90
25024;DHT22;13033;50.936;5.334;2022-09-09T03:07:54;16.10;99.90
25024;DHT22;13033;50.936;5.334;2022-09-09T03:10:20;16.20;99.90
25024;DHT22;13033;50.936;5.334;2022-09-09T03:12:46;16.20;99.90
25024;DHT22;13033;50.936;5.334;2022-09-09T03:15:11;16.20;99.90
25024;DHT22;13033;50.936;5.334;2022-09-09T03:17:37;16.10;99.90
25024;DHT22;13033;50.936;5.334;2022-09-09T03:20:04;16.00;99.90
25024;DHT22;13033;50.936;5.334;2022-09-09T03:22:29;16.00;99.90
25024;DHT22;13033;50.936;5.334;2022-09-09T03:24:55;16.00;99.90
25024;DHT22;13033;50.936;5.334;2022-09-09T03:27:21;16.10;99.90
25024;DHT22;13033;50.936;5.334;2022-09-09T03:29:46;16.20;99.90
25024;DHT22;13033;50.936;5.334;2022-09-09T03:32:12;16.30;99.90
25024;DHT22;13033;50.936;5.334;2022-09-09T03:34:38;16.30;99.90
25024;DHT22;13033;50.936;5.334;2022-09-09T03:37:06;16.40;99.90
25024;DHT22;13033;50.936;5.334;2022-09-09T03:39:32;16.30;99.90
25024;DHT22;13033;50.936;5.334;2022-09-09T03:41:58;16.50;99.90
25024;DHT22;13033;50.936;5.334;2022-09-09T03:44:23;16.60;99.90
25024;DHT22;13033;50.936;5.334;2022-09-09T03:46:49;16.50;99.90
25024;DHT22;13033;50.936;5.334;2022-09-09T03:49:15;16.40;99.90
25024;DHT22;13033;50.936;5.334;2022-09-09T03:51:40;16.40;99.90
25024;DHT22;13033;50.936;5.334;2022-09-09T03:54:07;16.30;99.90
25024;DHT22;13033;50.936;5.334;2022-09-09T03:56:35;16.50;99.90
25024;DHT22;13033;50.936;5.334;2022-09-09T03:59:01;16.60;99.90
25024;DHT22;13033;50.936;5.334;2022-09-09T04:01:28;16.60;99.90
25024;DHT22;13033;50.936;5.334;2022-09-09T04:03:53;16.40;99.90
25024;DHT22;13033;50.936;5.334;2022-09-09T04:06:20;16.40;99.90
25024;DHT22;13033;50.936;5.334;2022-09-09T04:08:46;16.40;99.90
25024;DHT22;13033;50.936;5.334;2022-09-09T04:11:14;16.30;99.90
25024;DHT22;13033;50.936;5.334;2022-09-09T04:13:40;16.40;99.90
25024;DHT22;13033;50.936;5.334;2022-09-09T04:16:07;16.30;99.90
25024;DHT22;13033;50.936;5.334;2022-09-09T04:18:34;16.40;99.90
25024;DHT22;13033;50.936;5.334;2022-09-09T04:21:00;16.30;99.90
25024;DHT22;13033;50.936;5.334;2022-09-09T04:23:27;16.30;99.90
25024;DHT22;13033;50.936;5.334;2022-09-09T04:25:55;16.20;99.90
25024;DHT22;13033;50.936;5.334;2022-09-09T04:28:23;16.20;99.90
25024;DHT22;13033;50.936;5.334;2022-09-09T04:30:50;16.30;99.90
25024;DHT22;13033;50.936;5.334;2022-09-09T04:33:15;16.20;99.90
25024;DHT22;13033;50.936;5.334;2022-09-09T04:35:47;16.30;99.90
25024;DHT22;13033;50.936;5.334;2022-09-09T04:38:13;16.20;99.90
25024;DHT22;13033;50.936;5.334;2022-09-09T04:40:41;16.30;99.90
25024;DHT22;13033;50.936;5.334;2022-09-09T04:43:08;16.40;99.90
25024;DHT22;13033;50.936;5.334;2022-09-09T04:45:34;16.30;99.90
25024;DHT22;13033;50.936;5.334;2022-09-09T04:48:00;16.30;99.90
25024;DHT22;13033;50.936;5.334;2022-09-09T04:50:27;16.30;99.90
25024;DHT22;13033;50.936;5.334;2022-09-09T04:52:54;16.30;99.90
25024;DHT22;13033;50.936;5.334;2022-09-09T04:55:19;16.10;99.90
25024;DHT22;13033;50.936;5.334;2022-09-09T04:57:45;16.10;99.90
25024;DHT22;13033;50.936;5.334;2022-09-09T05:00:11;16.10;99.90
25024;DHT22;13033;50.936;5.334;2022-09-09T05:02:38;16.10;99.90
25024;DHT22;13033;50.936;5.334;2022-09-09T05:05:05;16.00;99.90
25024;DHT22;13033;50.936;5.334;2022-09-09T05:07:31;16.00;99.90
25024;DHT22;13033;50.936;5.334;2022-09-09T05:09:56;16.00;99.90
25024;DHT22;13033;50.936;5.334;2022-09-09T05:12:23;16.00;99.90
25024;DHT22;13033;50.936;5.334;2022-09-09T05:14:51;16.00;99.90
25024;DHT22;13033;50.936;5.334;2022-09-09T05:17:16;16.10;99.90
25024;DHT22;13033;50.936;5.334;2022-09-09T05:19:43;16.10;99.90
25024;DHT22;13033;50.936;5.334;2022-09-09T05:22:09;16.10;99.90
25024;DHT22;13033;50.936;5.334;2022-09-09T05:24:37;16.10;99.90
25024;DHT22;13033;50.936;5.334;2022-09-09T05:27:03;16.10;99.90
25024;DHT22;13033;50.936;5.334;2022-09-09T05:29:31;16.10;99.90
25024;DHT22;13033;50.936;5.334;2022-09-09T05:31:59;16.00;99.90
25024;DHT22;13033;50.936;5.334;2022-09-09T05:34:24;15.90;99.90
25024;DHT22;13033;50.936;5.334;2022-09-09T05:36:50;16.00;99.90
25024;DHT22;13033;50.936;5.334;2022-09-09T05:39:17;16.00;99.90
25024;DHT22;13033;50.936;5.334;2022-09-09T05:41:43;16.10;99.90
25024;DHT22;13033;50.936;5.334;2022-09-09T05:44:09;16.30;99.90
25024;DHT22;13033;50.936;5.334;2022-09-09T05:46:34;16.30;99.90
25024;DHT22;13033;50.936;5.334;2022-09-09T05:49:02;16.30;99.90
25024;DHT22;13033;50.936;5.334;2022-09-09T05:51:29;16.40;99.90
25024;DHT22;13033;50.936;5.334;2022-09-09T05:53:57;16.50;99.90
25024;DHT22;13033;50.936;5.334;2022-09-09T05:56:27;16.60;99.90
25024;DHT22;13033;50.936;5.334;2022-09-09T05:58:55;16.70;99.90
25024;DHT22;13033;50.936;5.334;2022-09-09T06:01:26;16.70;99.90
25024;DHT22;13033;50.936;5.334;2022-09-09T06:03:53;16.70;99.90
25024;DHT22;13033;50.936;5.334;2022-09-09T06:06:21;16.80;99.90
25024;DHT22;13033;50.936;5.334;2022-09-09T06:08:48;16.80;99.90
25024;DHT22;13033;50.936;5.334;2022-09-09T06:11:17;17.00;99.20
25024;DHT22;13033;50.936;5.334;2022-09-09T06:13:43;17.00;98.60
25024;DHT22;13033;50.936;5.334;2022-09-09T06:16:10;17.00;98.80
25024;DHT22;13033;50.936;5.334;2022-09-09T06:18:37;16.80;99.90
25024;DHT22;13033;50.936;5.334;2022-09-09T06:21:05;16.90;98.80
25024;DHT22;13033;50.936;5.334;2022-09-09T06:23:32;16.90;98.70
25024;DHT22;13033;50.936;5.334;2022-09-09T06:26:05;16.90;99.50
25024;DHT22;13033;50.936;5.334;2022-09-09T06:28:34;16.90;99.50
25024;DHT22;13033;50.936;5.334;2022-09-09T06:31:01;16.90;99.00
25024;DHT22;13033;50.936;5.334;2022-09-09T06:33:31;16.90;99.20
25024;DHT22;13033;50.936;5.334;2022-09-09T06:36:00;17.00;98.30
25024;DHT22;13033;50.936;5.334;2022-09-09T06:38:26;17.00;98.30
25024;DHT22;13033;50.936;5.334;2022-09-09T06:40:56;17.20;97.10
25024;DHT22;13033;50.936;5.334;2022-09-09T06:43:24;17.30;96.00
25024;DHT22;13033;50.936;5.334;2022-09-09T06:46:04;17.30;94.30
25024;DHT22;13033;50.936;5.334;2022-09-09T06:48:30;17.20;96.10
25024;DHT22;13033;50.936;5.334;2022-09-09T06:51:07;17.30;95.40
25024;DHT22;13033;50.936;5.334;2022-09-09T06:53:34;17.20;94.40
25024;DHT22;13033;50.936;5.334;2022-09-09T06:56:02;17.30;94.80
25024;DHT22;13033;50.936;5.334;2022-09-09T06:58:28;17.50;92.60
25024;DHT22;13033;50.936;5.334;2022-09-09T07:01:05;17.70;90.70
25024;DHT22;13033;50.936;5.334;2022-09-09T07:03:31;17.80;89.70
25024;DHT22;13033;50.936;5.334;2022-09-09T07:05:57;17.90;86.10
25024;DHT22;13033;50.936;5.334;2022-09-09T07:08:23;17.90;82.70
25024;DHT22;13033;50.936;5.334;2022-09-09T07:10:50;18.00;79.70
25024;DHT22;13033;50.936;5.334;2022-09-09T07:13:23;18.20;75.40
25024;DHT22;13033;50.936;5.334;2022-09-09T07:15:51;18.10;75.30
25024;DHT22;13033;50.936;5.334;2022-09-09T07:18:16;18.00;77.50
25024;DHT22;13033;50.936;5.334;2022-09-09T07:20:42;17.90;77.80
25024;DHT22;13033;50.936;5.334;2022-09-09T07:23:08;17.80;79.00
25024;DHT22;13033;50.936;5.334;2022-09-09T07:25:33;17.90;80.30
25024;DHT22;13033;50.936;5.334;2022-09-09T07:27:59;18.00;77.30
25024;DHT22;13033;50.936;5.334;2022-09-09T07:30:25;17.90;75.80
25024;DHT22;13033;50.936;5.334;2022-09-09T07:32:51;18.20;74.70
25024;DHT22;13033;50.936;5.334;2022-09-09T07:35:17;18.30;64.40
25024;DHT22;13033;50.936;5.334;2022-09-09T07:37:43;18.40;61.30
25024;DHT22;13033;50.936;5.334;2022-09-09T07:40:09;18.30;65.30
25024;DHT22;13033;50.936;5.334;2022-09-09T07:42:35;18.30;62.70
25024;DHT22;13033;50.936;5.334;2022-09-09T07:45:03;18.30;62.10
25024;DHT22;13033;50.936;5.334;2022-09-09T07:47:29;18.40;57.30
25024;DHT22;13033;50.936;5.334;2022-09-09T07:49:55;18.40;57.90
25024;DHT22;13033;50.936;5.334;2022-09-09T07:52:21;18.50;54.60
25024;DHT22;13033;50.936;5.334;2022-09-09T07:54:47;18.60;56.20
25024;DHT22;13033;50.936;5.334;2022-09-09T07:57:13;18.80;50.50
25024;DHT22;13033;50.936;5.334;2022-09-09T07:59:38;18.70;50.50
25024;DHT22;13033;50.936;5.334;2022-09-09T08:02:04;18.40;55.90
25024;DHT22;13033;50.936;5.334;2022-09-09T08:04:30;18.20;58.80
25024;DHT22;13033;50.936;5.334;2022-09-09T08:06:58;18.30;59.70
25024;DHT22;13033;50.936;5.334;2022-09-09T08:09:25;18.20;62.20
25024;DHT22;13033;50.936;5.334;2022-09-09T08:11:54;18.20;59.30
25024;DHT22;13033;50.936;5.334;2022-09-09T08:14:22;18.20;59.00
25024;DHT22;13033;50.936;5.334;2022-09-09T08:16:49;18.20;61.50
25024;DHT22;13033;50.936;5.334;2022-09-09T08:19:16;18.00;63.20
25024;DHT22;13033;50.936;5.334;2022-09-09T08:21:42;17.90;64.30
25024;DHT22;13033;50.936;5.334;2022-09-09T08:24:09;17.90;64.40
25024;DHT22;13033;50.936;5.334;2022-09-09T08:26:45;17.90;63.70
25024;DHT22;13033;50.936;5.334;2022-09-09T08:29:12;18.00;65.80
25024;DHT22;13033;50.936;5.334;2022-09-09T08:31:47;18.00;61.70
25024;DHT22;13033;50.936;5.334;2022-09-09T08:34:13;18.20;58.80
25024;DHT22;13033;50.936;5.334;2022-09-09T08:36:42;18.30;59.00
25024;DHT22;13033;50.936;5.334;2022-09-09T08:39:09;18.30;57.10
25024;DHT22;13033;50.936;5.334;2022-09-09T08:55:51;17.90;61.50
25024;DHT22;13033;50.936;5.334;2022-09-09T08:58:21;17.70;77.30
25024;DHT22;13033;50.936;5.334;2022-09-09T09:09:32;17.60;79.20
25024;DHT22;13033;50.936;5.334;2022-09-09T09:12:11;17.70;76.30
25024;DHT22;13033;50.936;5.334;2022-09-09T09:14:40;17.80;73.50
25024;DHT22;13033;50.936;5.334;2022-09-09T09:17:10;17.90;69.50
25024;DHT22;13033;50.936;5.334;2022-09-09T09:19:40;17.80;69.00
25024;DHT22;13033;50.936;5.334;2022-09-09T09:23:12;17.90;66.40
25024;DHT22;13033;50.936;5.334;2022-09-09T09:25:41;17.90;63.80
25024;DHT22;13033;50.936;5.334;2022-09-09T09:28:21;18.00;63.70
25024;DHT22;13033;50.936;5.334;2022-09-09T09:31:14;18.30;55.20
25024;DHT22;13033;50.936;5.334;2022-09-09T09:36:07;18.10;59.30
25024;DHT22;13033;50.936;5.334;2022-09-09T09:38:35;18.20;59.10
25024;DHT22;13033;50.936;5.334;2022-09-09T09:41:00;18.30;59.40
25024;DHT22;13033;50.936;5.334;2022-09-09T09:43:28;18.60;56.00
25024;DHT22;13033;50.936;5.334;2022-09-09T09:45:55;19.00;49.10
25024;DHT22;13033;50.936;5.334;2022-09-09T09:48:23;19.20;40.60
25024;DHT22;13033;50.936;5.334;2022-09-09T09:51:08;19.20;41.80
25024;DHT22;13033;50.936;5.334;2022-09-09T09:53:36;19.20;41.70
25024;DHT22;13033;50.936;5.334;2022-09-09T09:56:05;19.30;40.10
25024;DHT22;13033;50.936;5.334;2022-09-09T09:58:47;19.30;36.90
25024;DHT22;13033;50.936;5.334;2022-09-09T10:01:38;19.00;42.50
25024;DHT22;13033;50.936;5.334;2022-09-09T10:06:38;18.70;59.20
25024;DHT22;13033;50.936;5.334;2022-09-09T10:09:27;18.70;58.10
25024;DHT22;13033;50.936;5.334;2022-09-09T10:15:06;18.40;73.90
25024;DHT22;13033;50.936;5.334;2022-09-09T10:18:04;18.40;73.40
25024;DHT22;13033;50.936;5.334;2022-09-09T10:20:51;18.30;73.40
25024;DHT22;13033;50.936;5.334;2022-09-09T10:26:31;17.90;96.10
25024;DHT22;13033;50.936;5.334;2022-09-09T10:35:03;17.50;99.90
25024;DHT22;13033;50.936;5.334;2022-09-09T10:42:43;17.10;99.90
25024;DHT22;13033;50.936;5.334;2022-09-09T10:50:53;17.00;99.90
25024;DHT22;13033;50.936;5.334;2022-09-09T10:53:35;17.40;99.90
25024;DHT22;13033;50.936;5.334;2022-09-09T10:56:11;17.40;99.90
25024;DHT22;13033;50.936;5.334;2022-09-09T11:04:10;17.70;99.90
25024;DHT22;13033;50.936;5.334;2022-09-09T11:06:46;17.90;99.90
25024;DHT22;13033;50.936;5.334;2022-09-09T11:09:18;18.00;99.90
25024;DHT22;13033;50.936;5.334;2022-09-09T11:11:54;18.20;99.90
25024;DHT22;13033;50.936;5.334;2022-09-09T11:14:44;18.40;99.90
25024;DHT22;13033;50.936;5.334;2022-09-09T11:17:18;18.30;99.90
25024;DHT22;13033;50.936;5.334;2022-09-09T11:19:44;18.20;99.90
25024;DHT22;13033;50.936;5.334;2022-09-09T11:22:39;18.50;99.90
25024;DHT22;13033;50.936;5.334;2022-09-09T11:33:08;19.00;99.90
25024;DHT22;13033;50.936;5.334;2022-09-09T11:41:08;19.30;90.80
25024;DHT22;13033;50.936;5.334;2022-09-09T11:43:44;19.50;91.60
25024;DHT22;13033;50.936;5.334;2022-09-09T11:46:12;19.50;91.20
25024;DHT22;13033;50.936;5.334;2022-09-09T11:48:42;19.50;81.30
25024;DHT22;13033;50.936;5.334;2022-09-09T11:51:12;19.60;86.60
25024;DHT22;13033;50.936;5.334;2022-09-09T11:53:59;19.60;81.60
25024;DHT22;13033;50.936;5.334;2022-09-09T11:56:34;19.30;83.60
25024;DHT22;13033;50.936;5.334;2022-09-09T11:59:26;18.90;90.70
25024;DHT22;13033;50.936;5.334;2022-09-09T12:04:53;18.70;91.70
25024;DHT22;13033;50.936;5.334;2022-09-09T12:07:41;18.60;92.40
25024;DHT22;13033;50.936;5.334;2022-09-09T12:12:45;18.20;96.10
25024;DHT22;13033;50.936;5.334;2022-09-09T12:17:45;18.30;99.50
25024;DHT22;13033;50.936;5.334;2022-09-09T12:20:23;18.30;98.60
25024;DHT22;13033;50.936;5.334;2022-09-09T12:28:22;18.10;99.50
25024;DHT22;13033;50.936;5.334;2022-09-09T12:33:54;18.10;98.30
25024;DHT22;13033;50.936;5.334;2022-09-09T12:36:24;18.10;96.30
25024;DHT22;13033;50.936;5.334;2022-09-09T12:38:53;18.50;96.00
25024;DHT22;13033;50.936;5.334;2022-09-09T12:41:25;18.90;91.50
25024;DHT22;13033;50.936;5.334;2022-09-09T12:43:51;19.30;89.20
25024;DHT22;13033;50.936;5.334;2022-09-09T12:49:39;19.50;89.70
25024;DHT22;13033;50.936;5.334;2022-09-09T12:52:16;19.40;88.00
25024;DHT22;13033;50.936;5.334;2022-09-09T12:54:47;19.60;90.80
25024;DHT22;13033;50.936;5.334;2022-09-09T12:57:13;19.80;75.10
25024;DHT22;13033;50.936;5.334;2022-09-09T12:59:42;19.80;82.50
25024;DHT22;13033;50.936;5.334;2022-09-09T13:02:24;20.00;77.00
25024;DHT22;13033;50.936;5.334;2022-09-09T13:04:51;20.00;71.40
25024;DHT22;13033;50.936;5.334;2022-09-09T13:07:20;20.20;71.20
25024;DHT22;13033;50.936;5.334;2022-09-09T13:09:48;20.40;70.60
25024;DHT22;13033;50.936;5.334;2022-09-09T13:12:21;20.70;60.70
25024;DHT22;13033;50.936;5.334;2022-09-09T13:14:55;20.90;58.20
25024;DHT22;13033;50.936;5.334;2022-09-09T13:17:26;21.10;48.60
25024;DHT22;13033;50.936;5.334;2022-09-09T13:19:55;21.10;48.40
25024;DHT22;13033;50.936;5.334;2022-09-09T13:22:39;20.90;44.70
25024;DHT22;13033;50.936;5.334;2022-09-09T13:27:38;20.60;36.90
25024;DHT22;13033;50.936;5.334;2022-09-09T13:30:40;20.80;38.60
25024;DHT22;13033;50.936;5.334;2022-09-09T13:35:57;20.60;47.30
25024;DHT22;13033;50.936;5.334;2022-09-09T13:38:25;20.50;52.60
25024;DHT22;13033;50.936;5.334;2022-09-09T13:40:59;20.40;46.20
25024;DHT22;13033;50.936;5.334;2022-09-09T13:43:28;20.30;48.80
25024;DHT22;13033;50.936;5.334;2022-09-09T13:45:56;20.50;45.60
25024;DHT22;13033;50.936;5.334;2022-09-09T13:48:23;20.60;42.40
25024;DHT22;13033;50.936;5.334;2022-09-09T13:50:58;20.80;36.10
25024;DHT22;13033;50.936;5.334;2022-09-09T13:53:24;20.70;42.40
25024;DHT22;13033;50.936;5.334;2022-09-09T13:55:50;20.60;31.30
25024;DHT22;13033;50.936;5.334;2022-09-09T13:58:17;20.70;30.20
25024;DHT22;13033;50.936;5.334;2022-09-09T14:00:45;20.90;25.80
25024;DHT22;13033;50.936;5.334;2022-09-09T14:03:11;20.90;21.30
25024;DHT22;13033;50.936;5.334;2022-09-09T14:05:37;21.00;15.60
25024;DHT22;13033;50.936;5.334;2022-09-09T14:08:05;20.90;18.50
25024;DHT22;13033;50.936;5.334;2022-09-09T14:10:31;21.10;17.20
25024;DHT22;13033;50.936;5.334;2022-09-09T14:12:56;20.90;16.60
25024;DHT22;13033;50.936;5.334;2022-09-09T14:15:22;21.00;17.40
25024;DHT22;13033;50.936;5.334;2022-09-09T14:17:48;21.30;15.50
25024;DHT22;13033;50.936;5.334;2022-09-09T14:20:14;21.30;14.80
25024;DHT22;13033;50.936;5.334;2022-09-09T14:22:41;21.50;13.60
25024;DHT22;13033;50.936;5.334;2022-09-09T14:25:07;21.40;16.60
25024;DHT22;13033;50.936;5.334;2022-09-09T14:27:33;21.40;9.80
25024;DHT22;13033;50.936;5.334;2022-09-09T14:29:59;21.50;10.40
25024;DHT22;13033;50.936;5.334;2022-09-09T14:32:26;21.40;3.60
25024;DHT22;13033;50.936;5.334;2022-09-09T14:34:52;21.50;3.80
25024;DHT22;13033;50.936;5.334;2022-09-09T14:37:18;21.30;6.80
25024;DHT22;13033;50.936;5.334;2022-09-09T14:39:44;21.50;4.50
25024;DHT22;13033;50.936;5.334;2022-09-09T14:42:13;21.50;1.00
25024;DHT22;13033;50.936;5.334;2022-09-09T14:44:39;21.70;1.00
25024;DHT22;13033;50.936;5.334;2022-09-09T14:47:06;22.00;1.00
25024;DHT22;13033;50.936;5.334;2022-09-09T14:49:33;22.10;1.00
25024;DHT22;13033;50.936;5.334;2022-09-09T14:51:59;21.70;1.00
25024;DHT22;13033;50.936;5.334;2022-09-09T14:54:25;21.80;1.00
25024;DHT22;13033;50.936;5.334;2022-09-09T14:56:51;22.00;1.00
25024;DHT22;13033;50.936;5.334;2022-09-09T14:59:16;22.50;1.00
25024;DHT22;13033;50.936;5.334;2022-09-09T15:01:42;23.40;1.00
25024;DHT22;13033;50.936;5.334;2022-09-09T15:04:10;23.60;1.00
25024;DHT22;13033;50.936;5.334;2022-09-09T15:06:36;23.20;1.00
25024;DHT22;13033;50.936;5.334;2022-09-09T15:09:04;22.90;1.00
25024;DHT22;13033;50.936;5.334;2022-09-09T15:11:33;22.50;1.00
25024;DHT22;13033;50.936;5.334;2022-09-09T15:14:06;22.30;1.00
25024;DHT22;13033;50.936;5.334;2022-09-09T15:16:33;22.00;1.00
25024;DHT22;13033;50.936;5.334;2022-09-09T15:19:00;21.90;1.00
25024;DHT22;13033;50.936;5.334;2022-09-09T15:21:31;22.00;1.00
25024;DHT22;13033;50.936;5.334;2022-09-09T15:23:58;21.90;1.00
25024;DHT22;13033;50.936;5.334;2022-09-09T15:26:24;21.80;1.00
25024;DHT22;13033;50.936;5.334;2022-09-09T15:28:51;21.80;1.00
25024;DHT22;13033;50.936;5.334;2022-09-09T15:31:19;21.50;1.60
25024;DHT22;13033;50.936;5.334;2022-09-09T15:33:52;21.50;3.40
25024;DHT22;13033;50.936;5.334;2022-09-09T15:36:23;21.40;9.10
25024;DHT22;13033;50.936;5.334;2022-09-09T15:38:50;21.40;5.90
25024;DHT22;13033;50.936;5.334;2022-09-09T15:41:17;21.60;1.00
25024;DHT22;13033;50.936;5.334;2022-09-09T15:43:44;21.50;6.10
25024;DHT22;13033;50.936;5.334;2022-09-09T15:48:42;21.50;7.30
25024;DHT22;13033;50.936;5.334;2022-09-09T15:51:09;21.60;5.00
25024;DHT22;13033;50.936;5.334;2022-09-09T15:53:36;21.80;2.50
25024;DHT22;13033;50.936;5.334;2022-09-09T15:56:05;21.80;5.40
25024;DHT22;13033;50.936;5.334;2022-09-09T15:58:32;23.00;1.00
25024;DHT22;13033;50.936;5.334;2022-09-09T16:01:08;23.80;1.00
25024;DHT22;13033;50.936;5.334;2022-09-09T16:03:38;24.70;1.00
25024;DHT22;13033;50.936;5.334;2022-09-09T16:06:05;24.50;1.00
25024;DHT22;13033;50.936;5.334;2022-09-09T16:08:42;24.10;1.00
25024;DHT22;13033;50.936;5.334;2022-09-09T16:11:22;23.60;1.00
25024;DHT22;13033;50.936;5.334;2022-09-09T16:13:49;23.30;1.00
25024;DHT22;13033;50.936;5.334;2022-09-09T16:16:17;23.00;1.00
25024;DHT22;13033;50.936;5.334;2022-09-09T16:18:46;22.60;1.00
25024;DHT22;13033;50.936;5.334;2022-09-09T16:21:16;22.40;1.00
25024;DHT22;13033;50.936;5.334;2022-09-09T16:23:42;22.00;1.00
25024;DHT22;13033;50.936;5.334;2022-09-09T16:26:11;21.70;1.00
25024;DHT22;13033;50.936;5.334;2022-09-09T16:28:38;21.50;1.00
25024;DHT22;13033;50.936;5.334;2022-09-09T16:31:09;21.00;7.70
25024;DHT22;13033;50.936;5.334;2022-09-09T16:33:36;20.60;21.30
25024;DHT22;13033;50.936;5.334;2022-09-09T16:36:09;20.50;27.20
25024;DHT22;13033;50.936;5.334;2022-09-09T16:38:36;20.40;28.40
25024;DHT22;13033;50.936;5.334;2022-09-09T16:41:03;20.30;32.60
25024;DHT22;13033;50.936;5.334;2022-09-09T16:43:31;20.30;26.40
25024;DHT22;13033;50.936;5.334;2022-09-09T16:45:57;20.30;27.40
25024;DHT22;13033;50.936;5.334;2022-09-09T16:48:30;20.70;22.30
25024;DHT22;13033;50.936;5.334;2022-09-09T16:51:08;21.10;9.70
25024;DHT22;13033;50.936;5.334;2022-09-09T16:53:36;21.00;10.50
25024;DHT22;13033;50.936;5.334;2022-09-09T16:56:06;20.80;13.90
25024;DHT22;13033;50.936;5.334;2022-09-09T16:58:32;20.80;16.10
25024;DHT22;13033;50.936;5.334;2022-09-09T17:00:59;20.40;20.20
25024;DHT22;13033;50.936;5.334;2022-09-09T17:03:25;20.40;22.70
25024;DHT22;13033;50.936;5.334;2022-09-09T17:05:51;20.40;23.60
25024;DHT22;13033;50.936;5.334;2022-09-09T17:08:17;20.40;23.10
25024;DHT22;13033;50.936;5.334;2022-09-09T17:10:42;20.20;26.50
25024;DHT22;13033;50.936;5.334;2022-09-09T17:13:08;20.20;27.20
25024;DHT22;13033;50.936;5.334;2022-09-09T17:15:39;20.20;27.70
25024;DHT22;13033;50.936;5.334;2022-09-09T17:18:08;20.10;29.30
25024;DHT22;13033;50.936;5.334;2022-09-09T17:20:38;20.10;27.20
25024;DHT22;13033;50.936;5.334;2022-09-09T17:23:08;19.90;31.30
25024;DHT22;13033;50.936;5.334;2022-09-09T17:25:35;19.90;31.30
25024;DHT22;13033;50.936;5.334;2022-09-09T17:28:01;19.80;29.50
25024;DHT22;13033;50.936;5.334;2022-09-09T17:30:27;20.00;28.10
25024;DHT22;13033;50.936;5.334;2022-09-09T17:32:53;19.90;28.70
25024;DHT22;13033;50.936;5.334;2022-09-09T17:35:19;19.80;30.50
25024;DHT22;13033;50.936;5.334;2022-09-09T17:37:44;19.70;32.10
25024;DHT22;13033;50.936;5.334;2022-09-09T17:40:10;19.70;32.40
25024;DHT22;13033;50.936;5.334;2022-09-09T17:42:36;19.70;31.80
25024;DHT22;13033;50.936;5.334;2022-09-09T17:45:03;19.80;30.00
25024;DHT22;13033;50.936;5.334;2022-09-09T17:47:29;19.70;37.80
25024;DHT22;13033;50.936;5.334;2022-09-09T17:49:56;19.70;46.90
25024;DHT22;13033;50.936;5.334;2022-09-09T17:52:21;19.60;53.30
25024;DHT22;13033;50.936;5.334;2022-09-09T17:54:48;19.30;62.10
25024;DHT22;13033;50.936;5.334;2022-09-09T17:57:15;19.10;68.30
25024;DHT22;13033;50.936;5.334;2022-09-09T17:59:42;19.00;73.60
25024;DHT22;13033;50.936;5.334;2022-09-09T18:02:10;18.80;80.40
25024;DHT22;13033;50.936;5.334;2022-09-09T18:04:36;18.70;82.40
25024;DHT22;13033;50.936;5.334;2022-09-09T18:07:04;18.60;85.00
25024;DHT22;13033;50.936;5.334;2022-09-09T18:09:30;18.50;91.60
25024;DHT22;13033;50.936;5.334;2022-09-09T18:11:57;18.40;92.10
25024;DHT22;13033;50.936;5.334;2022-09-09T18:14:32;18.20;94.70
25024;DHT22;13033;50.936;5.334;2022-09-09T18:16:59;18.10;97.60